Time;durP1;ratioP1;P1;durP2;ratioP2;P2;SDS_P1;SDS_P2;PMS_P1;PMS_P2;Temp;Humidity;BMP_temperature;BMP_pressure;BME280_temperature;BME280_humidity;BME280_pressure;Samples;Min_cycle;Max_cycle;Signal;HPM_P1;HPM_P2
2022/05/18 00:00:53;;;;;;;2.55;1.70;;;;;;;12.30;89.86;97624.90;1699842;84;21472;-85
2022/05/18 00:03:23;;;;;;;3.17;1.72;;;;;;;12.28;89.83;97633.80;1699235;83;21030;-85
2022/05/18 00:05:49;;;;;;;3.70;1.77;;;;;;;12.27;89.96;97633.41;1690529;84;21043;-82
2022/05/18 00:08:16;;;;;;;2.87;1.62;;;;;;;12.30;90.27;97643.50;1678296;85;21018;-81
2022/05/18 00:10:45;;;;;;;3.02;2.17;;;;;;;12.31;90.04;97635.92;1678425;85;21144;-82
2022/05/18 00:13:13;;;;;;;4.05;2.10;;;;;;;12.28;90.33;97639.13;1678324;85;21471;-81
2022/05/18 00:15:40;;;;;;;7.08;2.17;;;;;;;12.32;90.25;97636.31;1716247;82;21023;-80
2022/05/18 00:18:07;;;;;;;4.78;1.85;;;;;;;12.24;90.83;97637.52;1714696;83;21047;-77
2022/05/18 00:20:35;;;;;;;12.33;2.30;;;;;;;12.26;90.19;97635.64;1743502;80;21110;-78
2022/05/18 00:23:03;;;;;;;4.80;2.12;;;;;;;12.26;90.34;97631.66;1707079;84;21012;-78
2022/05/18 00:25:33;;;;;;;3.40;2.15;;;;;;;12.30;90.03;97624.45;1720870;81;21019;-83
2022/05/18 00:28:05;;;;;;;8.13;2.45;;;;;;;12.33;90.34;97619.47;1714285;81;21023;-83
2022/05/18 00:30:32;;;;;;;6.08;2.42;;;;;;;12.33;90.59;97626.95;1677308;85;21079;-83
2022/05/18 00:33:05;;;;;;;2.25;1.80;;;;;;;12.35;90.07;97630.42;1720370;81;21752;-82
2022/05/18 00:35:35;;;;;;;2.70;1.90;;;;;;;12.31;89.46;97623.52;1732572;82;21161;-86
2022/05/18 00:38:03;;;;;;;2.62;1.82;;;;;;;12.28;89.04;97620.52;1733582;81;21078;-79
2022/05/18 00:40:32;;;;;;;2.70;1.82;;;;;;;12.24;89.15;97624.69;1727581;82;21138;-87
2022/05/18 00:43:01;;;;;;;11.30;2.25;;;;;;;12.21;89.13;97640.78;1697378;83;21007;-86
2022/05/18 00:45:28;;;;;;;2.98;2.10;;;;;;;12.19;89.17;97638.63;1728801;81;21042;-83
2022/05/18 00:47:54;;;;;;;4.47;2.00;;;;;;;12.15;89.55;97631.26;1697550;82;21016;-84
2022/05/18 00:50:27;;;;;;;4.03;1.82;;;;;;;12.14;89.76;97623.73;1714314;81;21034;-84
2022/05/18 00:52:56;;;;;;;3.70;1.80;;;;;;;12.17;89.76;97620.58;1679225;85;21027;-85
2022/05/18 00:55:26;;;;;;;3.85;2.05;;;;;;;12.21;89.90;97623.50;1724492;81;21035;-85
2022/05/18 00:58:08;;;;;;;2.67;2.10;;;;;;;12.21;89.67;97629.66;1706035;84;21161;-85
2022/05/18 01:00:37;;;;;;;6.08;2.58;;;;;;;12.19;89.24;97628.88;1739448;82;21007;-85
2022/05/18 01:03:10;;;;;;;2.25;1.85;;;;;;;12.19;89.56;97629.33;1706976;83;21051;-85
2022/05/18 01:05:39;;;;;;;4.25;1.90;;;;;;;12.15;89.53;97639.23;1730851;82;21062;-85
2022/05/18 01:08:06;;;;;;;2.15;1.95;;;;;;;12.11;89.42;97639.83;1690768;85;21124;-85
2022/05/18 01:10:33;;;;;;;3.30;1.87;;;;;;;12.08;89.19;97643.93;1684987;85;21083;-85
2022/05/18 01:13:02;;;;;;;4.80;1.98;;;;;;;12.08;89.02;97637.28;1691725;85;21064;-85
2022/05/18 01:15:27;;;;;;;1.57;1.47;;;;;;;12.09;89.63;97644.32;1691851;85;21020;-85
2022/05/18 01:17:59;;;;;;;3.20;1.60;;;;;;;12.08;89.06;97637.77;1692122;85;21740;-86
2022/05/18 01:20:29;;;;;;;3.12;1.90;;;;;;;12.07;89.22;97630.25;1664256;86;21052;-85
2022/05/18 01:23:24;;;;;;;2.37;1.82;;;;;;;12.00;88.83;97629.61;1664163;86;21068;-85
2022/05/18 01:25:57;;;;;;;1.87;1.70;;;;;;;11.99;88.88;97634.52;1664310;86;21055;-85
2022/05/18 01:28:27;;;;;;;3.58;1.82;;;;;;;11.99;89.14;97638.51;1688573;84;21029;-85
2022/05/18 01:30:54;;;;;;;4.25;1.85;;;;;;;11.98;89.09;97637.23;1691803;85;21053;-85
2022/05/18 01:33:21;;;;;;;4.03;1.70;;;;;;;12.00;88.91;97636.25;1692080;85;21024;-85
2022/05/18 01:35:48;;;;;;;4.55;2.10;;;;;;;11.97;88.96;97635.06;1691910;85;21028;-85
2022/05/18 01:38:15;;;;;;;2.60;2.00;;;;;;;11.94;88.95;97632.98;1705321;84;21094;-85
2022/05/18 01:41:07;;;;;;;4.12;1.80;;;;;;;11.92;89.77;97641.48;1708987;84;21444;-85
2022/05/18 01:43:42;;;;;;;3.75;2.92;;;;;;;11.86;90.41;97635.95;1697937;84;21022;-86
2022/05/18 01:46:12;;;;;;;3.47;2.20;;;;;;;11.83;89.39;97632.11;1708588;84;21070;-86
2022/05/18 01:48:42;;;;;;;3.95;2.25;;;;;;;11.83;89.36;97635.61;1708793;84;21467;-86
2022/05/18 01:51:09;;;;;;;7.10;2.10;;;;;;;11.82;89.61;97637.87;1708384;84;21075;-76
2022/05/18 01:53:38;;;;;;;3.83;2.20;;;;;;;11.83;89.62;97640.92;1709284;84;21125;-76
2022/05/18 01:56:08;;;;;;;2.40;1.90;;;;;;;11.83;89.81;97649.37;1708980;84;21026;-76
2022/05/18 01:58:33;;;;;;;4.42;2.37;;;;;;;11.82;89.32;97652.92;1709347;84;21063;-76
2022/05/18 02:01:03;;;;;;;5.10;2.05;;;;;;;11.80;89.57;97645.49;1692863;84;21028;-75
2022/05/18 02:03:29;;;;;;;2.20;2.00;;;;;;;11.77;90.09;97648.27;1692294;83;20992;-76
2022/05/18 02:05:55;;;;;;;4.58;2.20;;;;;;;11.76;89.79;97643.44;1690049;83;21458;-76
2022/05/18 02:08:22;;;;;;;2.37;2.17;;;;;;;11.72;90.65;97643.16;1685453;85;21068;-76
2022/05/18 02:10:49;;;;;;;4.08;2.70;;;;;;;11.71;90.18;97649.39;1719923;83;20985;-75
2022/05/18 02:13:16;;;;;;;5.40;2.55;;;;;;;11.69;90.75;97648.12;1721568;83;21064;-76
2022/05/18 02:15:43;;;;;;;3.70;2.87;;;;;;;11.72;90.74;97653.77;1721495;83;21045;-76
2022/05/18 02:18:10;;;;;;;3.55;2.75;;;;;;;11.73;90.53;97656.37;1721314;83;21449;-76
2022/05/18 02:20:38;;;;;;;7.03;2.95;;;;;;;11.75;91.43;97648.31;1721560;83;21048;-75
2022/05/18 02:23:04;;;;;;;3.40;2.50;;;;;;;11.79;90.81;97655.72;1721509;83;21012;-76
2022/05/18 02:25:32;;;;;;;11.75;2.98;;;;;;;11.82;91.35;97652.92;1721504;83;21017;-75
2022/05/18 02:28:00;;;;;;;4.70;3.02;;;;;;;11.82;90.88;97660.44;1721658;82;21061;-76
2022/05/18 02:30:26;;;;;;;2.87;2.58;;;;;;;11.84;91.38;97657.24;1721645;83;21048;-76
2022/05/18 02:32:52;;;;;;;3.25;2.95;;;;;;;11.89;92.37;97670.35;1721583;82;21060;-76
2022/05/18 02:35:19;;;;;;;2.95;2.45;;;;;;;11.92;91.48;97669.36;1686977;85;21009;-75
2022/05/18 02:37:46;;;;;;;5.78;2.98;;;;;;;11.93;91.19;97665.78;1721612;83;21083;-76
2022/05/18 02:40:13;;;;;;;3.90;3.10;;;;;;;11.93;91.79;97665.78;1686882;85;21394;-76
2022/05/18 02:42:39;;;;;;;4.17;3.33;;;;;;;11.96;91.12;97660.35;1721710;82;21013;-76
2022/05/18 02:45:09;;;;;;;3.70;3.25;;;;;;;11.99;91.61;97659.75;1721809;82;20973;-75
2022/05/18 02:47:36;;;;;;;6.20;4.03;;;;;;;12.00;91.30;97659.30;1721582;83;21091;-76
2022/05/18 02:50:03;;;;;;;8.35;3.60;;;;;;;12.01;91.59;97680.47;1721450;82;21457;-76
2022/05/18 02:52:31;;;;;;;6.28;4.53;;;;;;;11.98;91.70;97676.63;1686899;85;21422;-76
2022/05/18 02:57:39;;;;;;;5.08;3.87;;;;;;;12.00;91.60;97693.34;1697393;83;21032;-76
2022/05/18 03:00:07;;;;;;;6.05;4.85;;;;;;;12.04;91.58;97694.56;1686714;85;21120;-76
2022/05/18 03:02:34;;;;;;;4.53;3.75;;;;;;;12.04;91.21;97703.38;1724761;82;20988;-76
2022/05/18 03:05:01;;;;;;;8.70;3.98;;;;;;;12.02;91.84;97706.58;1751371;82;21073;-76
2022/05/18 03:07:27;;;;;;;7.67;4.35;;;;;;;12.02;91.39;97705.24;1753753;82;21093;-76
2022/05/18 03:09:53;;;;;;;6.95;4.12;;;;;;;12.00;91.76;97711.94;1756905;82;21018;-76
2022/05/18 03:12:19;;;;;;;6.45;3.85;;;;;;;12.01;91.50;97728.75;1730307;82;21000;-76
2022/05/18 03:14:46;;;;;;;6.20;4.25;;;;;;;12.01;91.33;97725.61;1727053;82;21104;-75
2022/05/18 03:17:13;;;;;;;6.47;3.92;;;;;;;12.02;91.11;97729.15;1727128;82;21017;-75
2022/05/18 03:19:39;;;;;;;4.53;3.92;;;;;;;12.02;90.67;97730.48;1727002;83;21008;-76
2022/05/18 03:24:50;;;;;;;5.60;3.40;;;;;;;11.99;87.57;97734.57;1726596;83;21044;-76
2022/05/18 03:27:16;;;;;;;6.33;3.60;;;;;;;11.94;87.91;97750.70;1727028;82;21044;-76
2022/05/18 03:29:42;;;;;;;8.20;3.12;;;;;;;11.94;88.34;97751.16;1726986;82;20988;-75
2022/05/18 03:32:09;;;;;;;4.70;3.17;;;;;;;11.92;86.66;97759.17;1726767;82;21525;-75
2022/05/18 03:34:35;;;;;;;4.47;3.08;;;;;;;11.91;85.88;97759.26;1692484;85;21024;-76
2022/05/18 03:37:02;;;;;;;6.47;3.33;;;;;;;11.80;85.03;97774.27;1692919;85;20997;-75
2022/05/18 03:39:28;;;;;;;5.70;3.00;;;;;;;11.78;85.81;97782.28;1692479;85;20988;-75
2022/05/18 03:41:57;;;;;;;6.10;3.10;;;;;;;11.71;82.84;97794.07;1692460;85;21063;-75
2022/05/18 03:44:23;;;;;;;4.47;2.90;;;;;;;11.74;86.49;97793.48;1692337;85;21064;-75
2022/05/18 03:46:49;;;;;;;5.72;3.12;;;;;;;11.68;85.53;97796.38;1692333;85;21012;-75
2022/05/18 03:49:15;;;;;;;6.60;3.40;;;;;;;11.69;83.74;97803.86;1692142;85;21123;-75
2022/05/18 03:51:42;;;;;;;10.20;8.30;;;;;;;11.72;83.95;97816.55;1692366;85;21035;-75
2022/05/18 03:54:08;;;;;;;6.80;3.42;;;;;;;11.68;83.42;97816.29;1692302;85;21062;-75
2022/05/18 03:56:34;;;;;;;6.03;3.10;;;;;;;11.64;83.94;97818.65;1692144;85;21081;-75
2022/05/18 03:59:01;;;;;;;8.93;3.42;;;;;;;11.57;85.15;97827.30;1692268;84;21519;-75
2022/05/18 04:01:27;;;;;;;3.95;3.08;;;;;;;11.60;84.50;97838.26;1692298;84;21013;-75
2022/05/18 04:03:54;;;;;;;5.10;3.42;;;;;;;11.55;85.35;97838.89;1692355;83;21100;-75
2022/05/18 04:06:20;;;;;;;4.33;3.15;;;;;;;11.57;87.08;97843.66;1692245;84;20993;-75
2022/05/18 04:08:46;;;;;;;5.22;3.47;;;;;;;11.62;86.11;97843.03;1687560;84;21056;-75
2022/05/18 04:11:13;;;;;;;5.03;3.50;;;;;;;11.69;85.88;97855.18;1686570;85;21092;-75
2022/05/18 04:13:39;;;;;;;8.98;4.20;;;;;;;11.77;87.45;97858.00;1701894;84;21003;-75
2022/05/18 04:16:06;;;;;;;6.83;3.47;;;;;;;11.82;86.48;97869.31;1701986;84;21131;-75
2022/05/18 04:18:33;;;;;;;4.20;3.60;;;;;;;11.87;86.19;97870.02;1710747;83;21407;-75
2022/05/18 04:21:00;;;;;;;6.67;3.95;;;;;;;11.85;86.26;97862.58;1719094;83;21009;-75
2022/05/18 04:23:28;;;;;;;6.60;3.55;;;;;;;11.89;86.55;97871.69;1719041;83;21041;-75
2022/05/18 04:25:56;;;;;;;4.05;3.65;;;;;;;11.94;88.11;97874.64;1718869;83;21033;-75
2022/05/18 04:28:22;;;;;;;7.67;3.27;;;;;;;11.95;87.60;97878.57;1719118;83;21005;-75
2022/05/18 04:30:50;;;;;;;6.50;3.33;;;;;;;11.92;87.09;97874.69;1706605;82;21036;-75
2022/05/18 04:33:19;;;;;;;7.72;3.30;;;;;;;11.89;86.45;97878.33;1701459;84;21115;-75
2022/05/18 04:35:49;;;;;;;5.17;3.22;;;;;;;11.91;86.73;97876.10;1701790;84;21067;-75
2022/05/18 04:38:16;;;;;;;10.50;3.35;;;;;;;11.85;87.23;97886.03;1685985;85;21121;-76
2022/05/18 04:40:42;;;;;;;5.42;2.80;;;;;;;11.88;87.07;97881.91;1686936;84;21010;-76
2022/05/18 04:43:09;;;;;;;6.58;2.83;;;;;;;11.88;86.63;97895.19;1678280;84;20997;-76
2022/05/18 04:45:36;;;;;;;4.53;2.90;;;;;;;11.91;85.51;97893.36;1667371;85;21549;-75
2022/05/18 04:48:03;;;;;;;5.25;2.37;;;;;;;11.92;84.64;97893.77;1699938;83;21452;-76
2022/05/18 04:50:29;;;;;;;7.25;2.80;;;;;;;11.89;82.28;97894.74;1701766;84;21473;-76
2022/05/18 04:52:57;;;;;;;4.25;2.52;;;;;;;12.02;84.69;97899.14;1701262;84;21835;-76
2022/05/18 04:55:23;;;;;;;3.37;2.60;;;;;;;12.17;83.26;97899.07;1701475;84;21012;-76
2022/05/18 04:57:49;;;;;;;3.95;2.50;;;;;;;12.24;82.28;97905.87;1715490;83;21425;-76
2022/05/18 05:00:16;;;;;;;5.60;2.70;;;;;;;12.33;82.02;97914.42;1718896;83;21032;-76
2022/05/18 05:02:42;;;;;;;4.60;2.52;;;;;;;12.33;82.82;97913.09;1718999;83;21044;-75
2022/05/18 05:05:11;;;;;;;14.25;3.50;;;;;;;12.32;82.52;97924.17;1707146;83;20992;-75
2022/05/18 05:07:38;;;;;;;6.60;2.95;;;;;;;12.27;82.15;97915.52;1707166;82;21464;-76
2022/05/18 05:10:05;;;;;;;4.62;2.77;;;;;;;12.20;82.31;97924.17;1726714;83;21015;-76
2022/05/18 05:12:32;;;;;;;3.95;3.37;;;;;;;12.11;82.57;97922.73;1726987;82;21076;-75
2022/05/18 05:14:58;;;;;;;7.55;5.08;;;;;;;11.97;81.10;97925.00;1726977;82;21088;-75
2022/05/18 05:17:25;;;;;;;7.83;3.77;;;;;;;11.89;82.08;97920.81;1727118;82;21485;-75
2022/05/18 05:19:52;;;;;;;7.05;2.30;;;;;;;11.85;82.50;97924.98;1726957;82;21043;-76
2022/05/18 05:22:18;;;;;;;3.33;2.25;;;;;;;11.62;76.55;97927.98;1692295;85;21470;-75
2022/05/18 05:24:44;;;;;;;6.67;2.15;;;;;;;11.60;79.87;97932.48;1695418;84;21074;-75
2022/05/18 05:27:11;;;;;;;3.22;2.05;;;;;;;11.43;78.43;97928.64;1692437;85;21091;-75
2022/05/18 05:29:37;;;;;;;7.10;2.00;;;;;;;11.39;80.57;97936.29;1695295;85;21047;-75
2022/05/18 05:32:08;;;;;;;4.22;2.30;;;;;;;11.38;81.06;97943.81;1692355;85;21064;-75
2022/05/18 05:34:34;;;;;;;4.35;2.02;;;;;;;11.39;81.34;97950.89;1681620;85;21110;-75
2022/05/18 05:37:01;;;;;;;4.25;2.17;;;;;;;11.31;74.68;97954.24;1662506;85;21473;-75
2022/05/18 05:39:28;;;;;;;6.67;2.40;;;;;;;11.31;78.67;97964.86;1692351;85;21073;-75
2022/05/18 05:41:54;;;;;;;5.83;2.00;;;;;;;11.26;79.92;97969.00;1692252;85;21403;-75
2022/05/18 05:44:20;;;;;;;5.28;1.72;;;;;;;11.24;79.32;97974.80;1692299;85;21013;-75
2022/05/18 05:46:47;;;;;;;3.72;2.08;;;;;;;11.27;77.53;97987.98;1692285;84;21020;-75
2022/05/18 05:49:14;;;;;;;3.30;1.70;;;;;;;11.21;75.43;97988.15;1692242;85;21024;-75
2022/05/18 05:51:41;;;;;;;3.87;1.90;;;;;;;11.22;74.56;97992.09;1692225;85;21096;-75
2022/05/18 05:54:08;;;;;;;5.62;2.25;;;;;;;11.15;77.74;98001.17;1692269;85;21427;-75
2022/05/18 05:56:34;;;;;;;2.90;1.98;;;;;;;11.14;76.49;98003.42;1692267;85;21050;-75
2022/05/18 05:59:00;;;;;;;3.65;2.00;;;;;;;11.14;74.07;98021.11;1675870;85;21024;-75
2022/05/18 06:01:27;;;;;;;3.35;1.85;;;;;;;11.07;73.22;98023.96;1668924;85;21016;-75
2022/05/18 06:03:53;;;;;;;2.95;1.80;;;;;;;11.05;74.25;98027.10;1692450;83;20999;-75
2022/05/18 06:06:20;;;;;;;4.60;2.27;;;;;;;11.03;72.43;98027.62;1692156;85;21096;-75
2022/05/18 06:08:47;;;;;;;6.15;2.62;;;;;;;11.02;73.55;98035.62;1688619;84;21036;-75
2022/05/18 06:11:13;;;;;;;3.47;1.67;;;;;;;10.99;69.51;98033.93;1674272;84;21008;-75
2022/05/18 06:13:40;;;;;;;3.25;1.85;;;;;;;11.01;70.58;98044.02;1703055;83;20999;-75
2022/05/18 06:16:08;;;;;;;5.03;2.02;;;;;;;11.04;70.00;98047.91;1708871;83;21067;-74
2022/05/18 06:18:35;;;;;;;8.10;1.87;;;;;;;11.09;71.21;98063.70;1659083;86;21012;-75
2022/05/18 06:21:02;;;;;;;5.12;1.25;;;;;;;11.15;68.39;98063.51;1719297;83;21473;-75
2022/05/18 06:23:28;;;;;;;2.20;1.25;;;;;;;11.22;67.13;98065.04;1686594;85;20989;-75
2022/05/18 06:26:02;;;;;;;2.87;1.50;;;;;;;11.14;64.57;98062.22;1711620;83;21023;-75
2022/05/18 06:28:29;;;;;;;4.78;1.95;;;;;;;11.14;64.87;98070.18;1693091;85;20996;-75
2022/05/18 06:30:55;;;;;;;5.60;1.47;;;;;;;11.06;63.14;98075.72;1692784;85;21079;-75
2022/05/18 06:33:22;;;;;;;5.47;1.70;;;;;;;11.05;66.33;98075.31;1685051;85;21020;-75
2022/05/18 06:35:51;;;;;;;9.53;5.28;;;;;;;11.11;68.28;98086.17;1692769;85;21028;-75
2022/05/18 06:38:16;;;;;;;5.17;1.40;;;;;;;11.15;66.86;98093.13;1659046;86;21060;-74
2022/05/18 06:43:29;;;;;;;4.15;2.12;;;;;;;11.22;61.92;98113.27;1686891;85;20965;-75
2022/05/18 06:45:56;;;;;;;5.50;1.22;;;;;;;11.14;60.95;98108.20;1721193;83;21047;-75
2022/05/18 06:48:23;;;;;;;3.80;2.00;;;;;;;11.14;61.65;98113.50;1686893;85;20949;-75
2022/05/18 06:50:49;;;;;;;3.70;1.17;;;;;;;11.10;62.50;98111.85;1721780;83;21028;-75
2022/05/18 06:53:15;;;;;;;6.47;1.57;;;;;;;11.00;62.35;98115.22;1721612;82;21528;-75
2022/05/18 06:55:41;;;;;;;6.50;1.98;;;;;;;10.89;57.90;98114.23;1721657;83;20981;-76
2022/05/18 06:58:08;;;;;;;2.83;1.62;;;;;;;10.92;59.05;98127.38;1720134;83;20995;-76
2022/05/18 07:00:34;;;;;;;4.53;1.20;;;;;;;11.10;64.04;98115.83;1703547;83;20976;-77
2022/05/18 07:03:00;;;;;;;9.20;1.25;;;;;;;11.28;64.32;98120.15;1704592;82;21047;-75
2022/05/18 07:05:27;;;;;;;4.50;1.85;;;;;;;11.51;62.12;98119.91;1687066;85;21441;-76
2022/05/18 07:07:53;;;;;;;4.80;1.45;;;;;;;11.62;63.50;98129.27;1721895;82;21114;-75
2022/05/18 07:10:21;;;;;;;3.40;1.20;;;;;;;11.71;61.63;98137.88;1690339;84;21613;-75
2022/05/18 07:12:47;;;;;;;7.50;1.10;;;;;;;11.79;60.95;98133.16;1689925;84;21030;-75
2022/05/18 07:15:13;;;;;;;2.92;1.17;;;;;;;11.80;56.69;98132.72;1687915;84;21014;-75
2022/05/18 07:17:41;;;;;;;3.40;1.22;;;;;;;11.86;57.79;98151.98;1672489;85;20993;-74
2022/05/18 07:20:08;;;;;;;2.72;0.95;;;;;;;11.92;54.44;98160.19;1662185;86;21529;-75
2022/05/18 07:22:34;;;;;;;5.97;1.57;;;;;;;11.95;53.72;98173.38;1684893;84;21481;-75
2022/05/18 07:25:00;;;;;;;2.00;1.00;;;;;;;11.94;53.08;98158.36;1691670;85;21028;-75
2022/05/18 07:27:28;;;;;;;3.65;1.02;;;;;;;11.77;46.04;98157.58;1682650;85;21068;-86
2022/05/18 07:29:54;;;;;;;6.42;1.10;;;;;;;11.80;49.60;98154.84;1676316;83;21039;-84
2022/05/18 07:32:21;;;;;;;7.58;1.00;;;;;;;11.80;47.73;98161.92;1677267;83;21072;-85
2022/05/18 07:34:47;;;;;;;2.35;0.95;;;;;;;11.80;42.74;98184.49;1677966;84;21177;-85
2022/05/18 07:37:23;;;;;;;5.25;1.40;;;;;;;11.83;49.10;98171.98;1686246;85;21481;-85
2022/05/18 07:39:50;;;;;;;3.35;1.10;;;;;;;11.94;52.00;98188.03;1690028;85;21043;-85
2022/05/18 07:42:17;;;;;;;2.85;1.00;;;;;;;12.02;51.56;98188.66;1674753;85;21421;-85
2022/05/18 07:44:44;;;;;;;3.90;1.10;;;;;;;12.09;52.94;98197.34;1670640;83;21075;-85
2022/05/18 07:47:10;;;;;;;6.85;1.27;;;;;;;12.11;46.83;98200.80;1680530;83;21481;-85
2022/05/18 07:49:39;;;;;;;8.78;1.87;;;;;;;12.17;50.90;98205.05;1647393;85;21040;-85
2022/05/18 07:52:06;;;;;;;3.90;1.02;;;;;;;12.26;50.34;98206.94;1684397;83;21067;-85
2022/05/18 07:54:32;;;;;;;3.33;0.98;;;;;;;12.32;47.39;98207.65;1695060;84;21046;-85
2022/05/18 07:56:58;;;;;;;4.12;1.37;;;;;;;12.38;48.14;98218.95;1696959;84;21383;-87
2022/05/18 07:59:25;;;;;;;3.42;0.90;;;;;;;12.50;46.13;98225.64;1719942;82;20992;-86
2022/05/18 08:01:51;;;;;;;3.45;1.10;;;;;;;12.65;47.13;98240.66;1710678;82;21043;-80
2022/05/18 08:04:19;;;;;;;1.92;1.12;;;;;;;12.63;40.92;98230.08;1712125;82;21432;-79
2022/05/18 08:06:46;;;;;;;4.53;1.00;;;;;;;12.73;43.79;98229.31;1721798;83;21087;-79
2022/05/18 08:09:12;;;;;;;3.08;1.17;;;;;;;12.87;45.17;98244.78;1724748;81;21055;-76
2022/05/18 08:17:08;;;;;;;5.45;1.35;;;;;;;12.95;45.92;98249.83;1650176;85;21421;-80
2022/05/18 08:19:35;;;;;;;4.28;1.12;;;;;;;12.80;39.90;98247.27;1681019;85;21115;-81
2022/05/18 08:22:01;;;;;;;2.72;1.10;;;;;;;12.77;44.70;98253.56;1662399;85;21087;-80
2022/05/18 08:24:28;;;;;;;2.12;1.00;;;;;;;12.81;40.82;98255.64;1663345;85;21008;-80
2022/05/18 08:26:56;;;;;;;5.30;1.07;;;;;;;12.80;42.75;98261.89;1677801;84;21390;-79
2022/05/18 08:29:22;;;;;;;2.75;0.80;;;;;;;12.87;43.89;98274.52;1698204;83;21080;-81
2022/05/18 08:31:49;;;;;;;2.95;1.17;;;;;;;12.97;42.22;98251.11;1683363;84;21005;-79
2022/05/18 08:34:16;;;;;;;6.70;1.50;;;;;;;13.01;44.54;98264.72;1675585;84;21039;-79
2022/05/18 08:36:42;;;;;;;5.80;2.08;;;;;;;13.04;43.25;98267.28;1685770;84;21441;-79
2022/05/18 08:39:09;;;;;;;5.67;1.72;;;;;;;13.06;43.97;98268.09;1690418;84;21037;-78
2022/05/18 08:41:39;;;;;;;1.27;0.90;;;;;;;13.07;42.13;98269.81;1685033;83;21584;-78
2022/05/18 08:44:08;;;;;;;3.52;1.00;;;;;;;13.04;37.09;98262.81;1677842;85;21028;-79
2022/05/18 08:46:38;;;;;;;3.15;0.72;;;;;;;13.14;40.62;98260.70;1691476;84;21032;-81
2022/05/18 08:49:11;;;;;;;6.25;0.90;;;;;;;13.24;41.25;98259.05;1685958;85;21008;-80
2022/05/18 08:51:52;;;;;;;5.97;1.60;;;;;;;13.36;43.30;98272.38;1663983;85;21004;-80
2022/05/18 08:54:42;;;;;;;1.77;0.85;;;;;;;13.47;43.09;98278.20;1680070;85;20977;-80
2022/05/18 08:57:12;;;;;;;4.45;0.90;;;;;;;13.51;41.37;98273.17;1674706;84;21418;-79
2022/05/18 08:59:42;;;;;;;2.02;1.15;;;;;;;13.53;41.74;98279.30;1673846;84;21186;-78
2022/05/18 09:02:18;;;;;;;4.62;1.45;;;;;;;13.58;41.83;98285.31;1677859;83;21005;-79
2022/05/18 09:04:49;;;;;;;2.25;0.82;;;;;;;13.60;40.48;98279.94;1666507;85;21092;-79
2022/05/18 09:07:19;;;;;;;3.77;0.75;;;;;;;13.62;40.03;98277.22;1670306;84;21545;-79
2022/05/18 09:10:16;;;;;;;2.50;1.10;;;;;;;13.69;40.47;98284.05;1672223;84;21017;-79
2022/05/18 09:12:52;;;;;;;3.02;0.80;;;;;;;13.73;39.09;98277.67;1663415;85;21409;-79
2022/05/18 09:15:18;;;;;;;;;;;;;;;13.77;35.52;98283.30;1690255;84;21064;-80
2022/05/18 09:17:55;;;;;;;2.80;0.90;;;;;;;13.65;34.91;98280.63;1689001;85;20172;-80
2022/05/18 09:20:35;;;;;;;3.65;0.80;;;;;;;13.69;37.53;98285.37;1668171;85;21017;-80
2022/05/18 09:23:14;;;;;;;3.85;0.90;;;;;;;13.69;36.28;98288.03;1676672;85;21494;-80
2022/05/18 09:25:43;;;;;;;3.70;0.80;;;;;;;13.75;36.63;98305.14;1689828;84;21084;-76
2022/05/18 09:28:29;;;;;;;2.52;0.90;;;;;;;13.80;36.41;98297.84;1664101;85;21064;-76
2022/05/18 09:31:05;;;;;;;5.40;0.90;;;;;;;13.86;39.21;98296.72;1663144;85;21469;-76
2022/05/18 09:33:43;;;;;;;4.72;0.90;;;;;;;13.96;36.65;98309.24;1690335;85;21311;-76
2022/05/18 09:36:16;;;;;;;1.80;0.90;;;;;;;13.88;35.20;98298.88;1666171;84;21044;-76
2022/05/18 09:39:01;;;;;;;1.45;0.78;;;;;;;13.91;36.89;98305.41;1688886;85;21056;-76
2022/05/18 09:41:31;;;;;;;6.95;1.10;;;;;;;13.99;37.14;98294.00;1689788;84;21028;-76
2022/05/18 09:44:19;;;;;;;3.70;0.70;;;;;;;14.18;37.11;98299.06;1664121;85;21028;-76
2022/05/18 09:46:47;;;;;;;3.62;0.80;;;;;;;14.21;36.97;98298.47;1691898;85;21043;-77
2022/05/18 09:49:20;;;;;;;1.35;0.90;;;;;;;14.27;31.26;98300.52;1673399;85;20968;-77
2022/05/18 09:51:47;;;;;;;1.10;0.80;;;;;;;14.33;36.03;98302.45;1694334;84;21049;-77
2022/05/18 09:54:14;;;;;;;1.52;0.70;;;;;;;14.39;36.11;98300.02;1701771;84;21067;-77
2022/05/18 09:56:44;;;;;;;3.62;0.85;;;;;;;14.40;32.56;98304.41;1691096;85;21474;-77
2022/05/18 09:59:17;;;;;;;1.87;0.82;;;;;;;14.57;36.17;98300.20;1663775;85;20988;-77
2022/05/18 10:07:34;;;;;;;;;;;;;;;14.76;34.48;98301.21;1671036;85;21001;-77
2022/05/18 10:10:14;;;;;;;2.62;1.10;;;;;;;14.81;33.79;98295.67;1683732;84;20177;-78
2022/05/18 10:12:43;;;;;;;3.02;0.78;;;;;;;14.90;32.61;98311.30;1709439;84;21018;-78
2022/05/18 10:15:32;;;;;;;4.58;1.10;;;;;;;15.03;34.57;98309.45;1700885;83;21072;-77
2022/05/18 10:18:02;;;;;;;2.92;0.70;;;;;;;15.23;36.45;98310.39;1692352;85;21043;-77
2022/05/18 10:20:32;;;;;;;12.37;8.23;;;;;;;15.42;35.56;98315.33;1691157;85;21036;-77
2022/05/18 10:23:01;;;;;;;2.70;1.85;;;;;;;15.43;32.00;98311.71;1693262;84;21057;-77
2022/05/18 10:25:43;;;;;;;3.55;0.88;;;;;;;15.37;30.18;98324.46;1709245;84;21027;-77
2022/05/18 10:28:19;;;;;;;2.27;0.70;;;;;;;15.23;30.37;98323.74;1708778;84;21087;-77
2022/05/18 10:31:01;;;;;;;3.30;1.12;;;;;;;15.13;32.68;98337.94;1708642;84;21073;-77
2022/05/18 10:33:40;;;;;;;9.75;0.82;;;;;;;15.17;33.25;98324.37;1707858;84;21023;-77
2022/05/18 10:36:15;;;;;;;5.15;0.80;;;;;;;15.34;32.61;98327.26;1709506;84;21038;-77
2022/05/18 10:38:51;;;;;;;3.27;0.80;;;;;;;15.42;32.03;98327.80;1709657;84;21138;-78
2022/05/18 10:41:26;;;;;;;4.08;0.75;;;;;;;16.14;29.13;98332.16;1709794;84;21444;-77
2022/05/18 10:44:01;;;;;;;2.47;0.85;;;;;;;17.30;28.95;98323.91;1686151;84;21539;-78
2022/05/18 10:46:31;;;;;;;2.65;0.60;;;;;;;18.39;27.96;98328.84;1709620;84;21440;-78
2022/05/18 10:49:13;;;;;;;4.50;0.93;;;;;;;19.06;26.95;98314.31;1708890;84;21018;-76
2022/05/18 10:51:43;;;;;;;1.32;0.88;;;;;;;20.20;25.88;98324.42;1693676;84;21019;-77
2022/05/18 10:54:19;;;;;;;5.80;0.60;;;;;;;21.19;22.48;98309.48;1670192;84;21000;-76
2022/05/18 10:56:47;;;;;;;4.33;0.70;;;;;;;21.89;23.53;98331.67;1664547;85;21143;-76
2022/05/18 10:59:34;;;;;;;2.37;0.85;;;;;;;21.89;23.53;98331.67;1664825;85;21056;-77
2022/05/18 11:02:13;;;;;;;2.72;0.80;;;;;;;22.40;22.32;98322.62;1693657;84;21095;-76
2022/05/18 11:05:03;;;;;;;0.93;0.60;;;;;;;23.00;21.85;98315.09;1683698;84;21053;-76
2022/05/18 11:07:31;;;;;;;2.27;0.75;;;;;;;23.41;19.91;98312.08;1691463;85;21100;-76
2022/05/18 11:09:57;;;;;;;5.05;4.40;;;;;;;23.97;19.52;98313.11;1686957;84;21065;-77
2022/05/18 11:12:33;;;;;;;1.60;0.90;;;;;;;24.19;22.39;98310.05;1716403;83;20985;-77
2022/05/18 11:15:12;;;;;;;4.12;0.95;;;;;;;24.81;22.17;98309.53;1720991;83;20981;-77
2022/05/18 11:18:04;;;;;;;3.50;0.78;;;;;;;25.56;23.11;98301.46;1721540;83;20971;-77
2022/05/18 11:20:38;;;;;;;3.55;0.93;;;;;;;25.90;20.42;98312.07;1700940;83;21085;-78
2022/05/18 11:23:34;;;;;;;6.08;1.00;;;;;;;25.95;19.75;98319.31;1719481;83;21446;-77
2022/05/18 11:26:21;;;;;;;8.35;0.90;;;;;;;25.81;18.38;98323.73;1663031;85;21005;-77
2022/05/18 11:29:27;;;;;;;2.92;0.90;;;;;;;25.83;19.68;98316.34;1701119;82;21004;-77
2022/05/18 11:32:33;;;;;;;1.65;0.80;;;;;;;26.25;20.25;98315.89;1721225;83;20987;-77
2022/05/18 11:35:20;;;;;;;4.65;1.00;;;;;;;25.70;17.51;98307.06;1716222;83;20968;-77
2022/05/18 11:37:55;;;;;;;3.30;1.00;;;;;;;25.57;19.55;98314.91;1692845;83;21437;-78
2022/05/18 11:40:40;;;;;;;2.62;0.90;;;;;;;26.21;20.68;98316.12;1719092;83;21019;-74
2022/05/18 11:43:28;;;;;;;1.80;0.95;;;;;;;26.56;18.93;98318.05;1715074;83;21473;-74
2022/05/18 11:46:12;;;;;;;3.62;0.80;;;;;;;26.46;19.20;98324.83;1721765;83;20977;-78
2022/05/18 11:48:45;;;;;;;1.10;0.70;;;;;;;26.65;20.44;98323.66;1721735;83;21441;-80
2022/05/18 11:51:18;;;;;;;3.77;1.17;;;;;;;26.39;18.05;98325.02;1721548;83;21505;-78
2022/05/18 11:53:53;;;;;;;3.33;1.30;;;;;;;26.49;19.21;98316.38;1721938;83;21020;-78
2022/05/18 11:56:38;;;;;;;4.70;1.22;;;;;;;27.04;19.83;98310.13;1720024;83;20988;-77
2022/05/18 12:02:34;;;;;;;7.12;1.40;;;;;;;26.73;18.64;98319.22;1721695;83;20999;-79
2022/05/18 12:05:16;;;;;;;1.35;0.80;;;;;;;27.25;18.67;98317.27;1692940;85;21453;-78
2022/05/18 12:07:52;;;;;;;3.75;0.90;;;;;;;27.24;18.44;98326.44;1668765;85;21461;-78
2022/05/18 12:10:40;;;;;;;2.45;1.00;;;;;;;27.24;18.84;98315.03;1738619;82;21011;-82